Waterloo, IA

9:20 PM CDT on September 29, 2016 (GMT -0500)
Forest Park Addition | | Change Station
Active Advisory: Flood Warning

Elev 892 ft 42.48 °N, 92.34 °W | Updated 3 seconds ago

Clear
Clear
61.3 °F
Feels Like 61.3 °F
N
8.9
Wind Variable Wind from NE

Today
High -- | Low -- °F
--% Chance of Precip.
Yesterday
High -- | Low -- °F
Precip. -- in
Pressure 30.33 in
Visibility 10.0 miles
Clouds Clear
Dew Point 51 °F
Humidity 70%
Rainfall 0.00 in
Snow Depth Not available.
7:04 AM 6:53 PM
Waning Crescent, 1% visible
METAR KALO 300154Z 01006KT 10SM CLR 13/09 A3033 RMK AO2 SLP271 T01330094
Pressure 30.33 in
Visibility 10.0 miles
Clouds Clear
Dew Point 51 °F
Humidity 70%
Rainfall 0.00 in
Snow Depth Not available.
7:04 AM 6:53 PM
Waning Crescent, 1% visible
METAR KALO 300154Z 01006KT 10SM CLR 13/09 A3033 RMK AO2 SLP271 T01330094

10-Day Weather Forecast

Almanac

Astronomy

Sep. 29, 2016 Rise Set
Actual Time
Civil Twilight
Nautical Twilight
Astronomical Twilight
Moon
Length of Visible Light
Length of Day
Tomorrow will be .
, % of the Moon is Illuminated

Today's Extremes

State Highs State Lows

Community

WunderPhotos

Upload Photos

1,942,637 photos uploaded!

WunderBlog® & News

Nearby

Air Quality

  Air Quality AQ Index Pollutant
Not available.

Snow Depth

Station Depth Elevation

Earthquake Activity

City Distance Mag. Time & Date
Minimum magnitude displayed is 2.5.

Coastal Water Temperatures

Place Temperature

Stations

Nearby Weather Stations

Station Location Temp. Windchill Dew Point Humidity Wind Precip. Elev Updated Type
                   

Watches & Warnings

Flood Warning
Issued: 8:37 PM CDT Sep. 29, 2016 – National Weather Service

... Flood Warning now in effect until midday Monday...

The Flood Warning continues for
the Cedar River at Cedar Falls... or from the West Fork Cedar
River... to the Cedar Falls-Waterloo city limits.
* Until midday Monday.
* At 7:45 PM Thursday the stage was 91.1 feet... or 3.1 feet above
flood stage.
* Flood stage is 88.0 feet.
* Moderate flooding is occurring and is forecast to continue.
* Forecast... continue falling and go below flood stage midday Monday.
* Impact... at 91.0 feet... water covers Big Woods Road south of
Dunkerton Road. Water also covers the north parking lot of Island
Park.


Lat... Lon 4256 9238 4251 9245 4258 9255 4262 9255
      4262 9241 4256 9238